createdAt,value
2022-08-02T08:24:09.212Z,22.90
2022-08-02T08:25:12.699Z,22.80
2022-08-02T08:26:17.631Z,22.90
2022-08-02T08:27:23.038Z,22.90
2022-08-02T08:28:27.171Z,23.00
2022-08-02T08:29:30.511Z,23.10
2022-08-02T08:30:34.818Z,23.30
2022-08-02T08:31:38.410Z,23.30
2022-08-02T08:32:42.821Z,23.40
2022-08-02T08:33:47.498Z,23.50
2022-08-02T08:34:51.490Z,23.50
2022-08-02T08:35:56.618Z,23.60
2022-08-02T08:36:59.922Z,23.70
2022-08-02T08:38:07.698Z,23.90
2022-08-02T08:39:14.464Z,24.00
2022-08-02T08:40:19.924Z,24.10
2022-08-02T08:41:24.457Z,24.20
2022-08-02T08:42:28.147Z,24.40
2022-08-02T08:43:32.857Z,24.40
2022-08-02T08:44:37.188Z,24.50
2022-08-02T08:45:42.208Z,24.50
2022-08-02T08:46:49.373Z,24.50
2022-08-02T08:48:01.088Z,24.60
2022-08-02T08:49:11.072Z,24.60
2022-08-02T08:50:24.528Z,24.50
2022-08-02T08:51:37.035Z,24.60
2022-08-02T08:52:50.184Z,24.80
2022-08-02T08:53:58.119Z,25.00
2022-08-02T08:55:05.376Z,25.00
2022-08-02T08:56:15.428Z,25.20
2022-08-02T08:57:22.508Z,25.30
2022-08-02T08:58:27.893Z,25.50
2022-08-02T08:59:32.008Z,25.50
2022-08-02T09:00:42.407Z,25.70
2022-08-02T11:23:44.102Z,26.60
2022-08-02T11:26:02.233Z,26.60
2022-08-02T11:27:00.297Z,26.60
2022-08-02T11:28:13.342Z,26.60
2022-08-02T11:29:16.353Z,26.60
2022-08-02T11:30:26.652Z,26.60
2022-08-02T11:31:38.060Z,26.60
2022-08-02T11:32:42.268Z,26.80
2022-08-02T11:33:45.054Z,26.90
2022-08-02T11:34:52.601Z,27.00
2022-08-02T11:36:03.735Z,27.10
2022-08-02T11:37:10.348Z,27.10
2022-08-02T11:38:17.636Z,27.20
2022-08-02T11:39:24.429Z,27.30
2022-08-02T11:40:38.186Z,27.40
2022-08-02T11:41:47.356Z,27.50
2022-08-02T11:42:51.526Z,27.60
2022-08-02T11:43:55.181Z,27.60
2022-08-02T11:44:58.555Z,27.60
2022-08-02T11:46:03.544Z,27.70
2022-08-02T11:47:08.345Z,27.60
2022-08-02T11:48:10.878Z,27.50
2022-08-02T11:49:16.865Z,27.40
2022-08-02T11:50:30.082Z,27.40
2022-08-02T11:51:34.013Z,27.30
2022-08-02T11:52:38.434Z,27.30
2022-08-02T11:53:49.846Z,27.30
2022-08-02T11:54:52.186Z,27.10
2022-08-02T11:55:58.621Z,27.00
2022-08-02T11:57:18.954Z,26.90
2022-08-02T11:58:23.528Z,26.80
2022-08-02T11:59:26.980Z,26.70
2022-08-02T12:00:30.642Z,26.60
2022-08-02T12:01:45.529Z,26.40
2022-08-02T12:02:50.187Z,26.30
2022-08-02T12:03:52.845Z,26.40
2022-08-02T12:04:59.061Z,26.30
2022-08-02T12:06:06.710Z,26.40
2022-08-02T12:07:15.184Z,26.30
2022-08-02T12:08:22.203Z,26.30
2022-08-02T12:09:32.180Z,26.20
2022-08-02T12:10:34.791Z,26.30
2022-08-02T12:11:39.279Z,26.30
2022-08-02T12:12:50.916Z,26.30
2022-08-02T12:13:56.498Z,26.40
2022-08-02T12:15:01.080Z,26.40
2022-08-02T12:16:30.468Z,26.40
2022-08-02T12:17:51.367Z,26.30
2022-08-02T12:19:08.623Z,26.20
2022-08-02T12:20:12.728Z,26.20
2022-08-02T12:21:25.997Z,26.20
2022-08-02T12:22:29.813Z,26.20
2022-08-02T12:23:33.222Z,26.20
2022-08-02T12:24:38.192Z,26.20
2022-08-02T12:25:42.356Z,26.10
2022-08-02T12:26:47.926Z,26.10
2022-08-02T12:27:53.319Z,26.00
2022-08-02T12:28:59.624Z,26.00
2022-08-02T12:30:08.365Z,26.00
2022-08-02T12:31:14.082Z,26.00
2022-08-02T12:32:25.704Z,26.00
2022-08-02T12:33:31.196Z,26.00
2022-08-02T12:34:35.301Z,26.00
2022-08-02T12:35:38.798Z,25.80
2022-08-02T12:36:41.514Z,25.90
2022-08-02T12:37:47.844Z,25.80
2022-08-02T12:38:54.113Z,25.80
2022-08-02T12:39:58.973Z,25.80
2022-08-02T12:41:31.988Z,25.80
2022-08-02T12:42:49.617Z,25.80
2022-08-02T12:43:53.784Z,25.90
2022-08-02T12:44:58.913Z,25.80
2022-08-02T12:46:02.424Z,25.90
2022-08-02T12:47:09.579Z,25.90
2022-08-02T12:48:13.941Z,25.80
2022-08-02T12:49:18.893Z,25.80
2022-08-02T12:50:27.291Z,25.80
2022-08-02T12:51:51.130Z,25.80
2022-08-02T12:53:10.053Z,25.80
2022-08-02T12:54:17.785Z,25.80
2022-08-02T12:56:01.474Z,25.80
2022-08-02T12:56:50.974Z,25.80
2022-08-02T12:58:00.674Z,25.70
2022-08-02T12:59:03.539Z,25.80
2022-08-02T13:00:09.816Z,25.80
2022-08-02T13:01:13.231Z,25.70
2022-08-02T13:02:16.882Z,25.70
2022-08-02T13:04:09.504Z,25.70
2022-08-02T13:04:49.649Z,25.70
2022-08-02T13:05:56.868Z,25.70
2022-08-02T13:07:00.103Z,25.70
2022-08-02T13:08:05.173Z,25.50
2022-08-02T13:09:17.856Z,25.60
2022-08-02T13:10:23.318Z,25.60
2022-08-02T13:11:26.504Z,25.60
2022-08-02T13:12:29.942Z,25.60
2022-08-02T13:13:33.446Z,25.70
2022-08-02T13:14:40.369Z,25.60
2022-08-02T13:15:50.199Z,25.70
2022-08-02T13:16:53.398Z,25.70
2022-08-02T13:22:03.949Z,25.60
2022-08-02T13:23:21.007Z,25.60
2022-08-02T13:24:38.757Z,25.50
2022-08-02T13:25:46.253Z,25.50
2022-08-02T13:26:55.437Z,25.60
2022-08-02T13:27:58.909Z,25.50
2022-08-02T13:29:04.037Z,25.60
2022-08-02T13:30:08.961Z,25.60
2022-08-02T13:31:35.297Z,25.70
2022-08-02T13:32:34.960Z,25.70
2022-08-02T13:33:37.478Z,25.80
2022-08-02T13:34:41.179Z,25.80
2022-08-02T13:35:44.920Z,25.80
2022-08-02T13:36:48.530Z,25.90
2022-08-02T13:37:54.146Z,26.00
2022-08-02T13:38:56.611Z,25.90
2022-08-02T13:40:20.499Z,25.90
2022-08-02T13:41:24.075Z,25.90
2022-08-02T13:42:27.931Z,25.90
2022-08-02T13:43:54.890Z,25.90
2022-08-02T13:44:54.151Z,25.80
2022-08-02T13:45:56.517Z,25.80
2022-08-02T13:46:59.921Z,25.80
2022-08-02T13:48:05.178Z,25.80
2022-08-02T13:49:09.215Z,25.80
2022-08-02T13:50:25.523Z,25.70
2022-08-02T13:51:31.431Z,25.80
2022-08-02T13:52:40.078Z,25.80
2022-08-02T13:53:44.088Z,25.80
2022-08-02T13:54:46.580Z,25.80
2022-08-02T13:55:54.586Z,25.90
2022-08-02T13:57:01.144Z,25.90
2022-08-02T13:58:05.630Z,25.90
2022-08-02T13:59:54.449Z,26.00
2022-08-02T14:00:35.110Z,26.00
2022-08-02T14:01:39.948Z,26.00
2022-08-02T14:02:42.369Z,26.00
2022-08-02T14:04:07.669Z,26.10
2022-08-02T14:05:10.219Z,26.10
2022-08-02T14:06:12.695Z,26.00
2022-08-02T14:07:16.105Z,26.10
2022-08-02T14:08:22.812Z,26.10
2022-08-02T14:09:26.961Z,26.10
2022-08-02T14:10:30.409Z,26.10
2022-08-02T14:11:34.381Z,26.10
2022-08-02T14:12:38.271Z,26.10
2022-08-02T14:13:42.189Z,26.10
2022-08-02T14:14:44.662Z,26.20
2022-08-02T14:15:48.844Z,26.10
2022-08-02T14:17:11.502Z,26.20
2022-08-02T14:18:54.452Z,26.20
2022-08-02T14:20:29.886Z,26.20
2022-08-02T14:21:46.772Z,26.20
2022-08-02T14:22:51.214Z,26.20
2022-08-02T14:23:54.595Z,26.30
2022-08-02T14:24:57.036Z,26.40
2022-08-02T14:26:00.513Z,26.40
2022-08-02T14:27:03.046Z,26.50
2022-08-02T14:28:08.502Z,26.60
2022-08-02T14:29:11.979Z,26.60
2022-08-02T14:30:14.721Z,26.70
2022-08-02T14:31:18.163Z,26.80
2022-08-02T14:32:20.504Z,26.90
2022-08-02T14:33:31.532Z,27.00
2022-08-02T14:34:34.088Z,27.10
2022-08-02T14:35:37.603Z,27.20
2022-08-02T14:37:00.497Z,27.30
2022-08-02T14:38:20.153Z,27.30
2022-08-02T14:39:23.071Z,27.40
2022-08-02T14:40:31.460Z,27.40
2022-08-02T14:41:58.237Z,27.50
2022-08-02T14:43:00.412Z,27.50
2022-08-02T14:44:05.148Z,27.60
2022-08-02T14:45:09.791Z,27.60
2022-08-02T14:46:12.238Z,27.70
2022-08-02T14:47:15.571Z,27.70
2022-08-02T14:48:18.930Z,27.80
2022-08-02T14:49:25.748Z,27.80
2022-08-02T14:50:30.307Z,27.80
2022-08-02T14:51:33.522Z,27.80
2022-08-02T14:52:36.864Z,27.80
2022-08-02T14:53:49.159Z,27.80
2022-08-02T14:54:53.196Z,27.80
2022-08-02T14:55:55.552Z,27.70
2022-08-02T14:57:01.181Z,27.70
2022-08-02T14:58:03.543Z,27.70
2022-08-02T14:59:08.724Z,27.70
2022-08-02T15:00:17.306Z,27.80
2022-08-02T15:01:20.215Z,27.80
2022-08-02T15:02:29.797Z,27.90
2022-08-02T15:03:32.222Z,28.00
2022-08-02T15:04:47.097Z,28.00
2022-08-02T15:05:49.544Z,28.00
2022-08-02T15:06:53.321Z,28.00
2022-08-02T15:07:56.806Z,28.00
2022-08-02T15:08:59.961Z,27.90
2022-08-02T15:10:03.505Z,27.90
2022-08-02T15:11:05.983Z,27.80
2022-08-02T15:12:11.547Z,27.80
2022-08-02T15:13:14.139Z,27.80
2022-08-02T15:14:25.323Z,27.80
2022-08-02T15:15:28.506Z,27.80
2022-08-02T15:16:55.634Z,27.80
2022-08-02T15:18:00.201Z,27.70
2022-08-02T15:19:03.307Z,27.70
2022-08-02T15:20:25.417Z,27.70
2022-08-02T15:21:40.555Z,27.70
2022-08-02T15:22:46.064Z,27.60
2022-08-02T15:23:51.779Z,27.60
2022-08-02T15:24:57.043Z,27.60
2022-08-02T15:25:59.365Z,27.60
2022-08-02T15:27:02.744Z,27.60
2022-08-02T15:28:06.858Z,27.60
2022-08-02T15:29:12.511Z,27.60
2022-08-02T15:30:17.567Z,27.60
2022-08-02T15:31:22.394Z,27.70
2022-08-02T15:32:36.921Z,27.70
2022-08-02T15:33:39.260Z,27.60
2022-08-02T15:34:42.658Z,27.60
2022-08-02T15:35:44.964Z,27.50
2022-08-02T15:36:48.382Z,27.50
2022-08-02T15:37:50.850Z,27.50
2022-08-02T15:38:54.284Z,27.50
2022-08-02T15:39:58.501Z,27.40
2022-08-02T15:41:02.156Z,27.40
2022-08-02T15:42:05.077Z,27.40
2022-08-02T15:43:08.525Z,27.40
2022-08-02T15:44:10.898Z,27.50
2022-08-02T15:45:16.184Z,27.50
2022-08-02T15:46:19.975Z,27.50
2022-08-02T15:47:22.423Z,27.50
2022-08-02T15:48:25.841Z,27.50
2022-08-02T15:49:29.312Z,27.40
2022-08-02T15:50:32.698Z,27.30
2022-08-02T15:51:35.105Z,27.30
2022-08-02T15:52:38.568Z,27.30
2022-08-02T15:53:41.918Z,27.30
2022-08-02T15:54:44.485Z,27.30
2022-08-02T15:55:52.617Z,27.30
2022-08-02T15:57:10.080Z,27.30
2022-08-02T15:58:17.110Z,27.20
2022-08-02T15:59:24.178Z,27.20
2022-08-02T16:00:30.809Z,27.20
2022-08-02T16:01:37.944Z,27.10
2022-08-02T16:02:42.507Z,27.10
2022-08-02T16:03:46.249Z,27.10
2022-08-02T16:04:49.795Z,27.20
2022-08-02T16:05:52.185Z,27.10
2022-08-02T16:06:55.569Z,27.10
2022-08-02T16:07:58.999Z,27.20
2022-08-02T16:09:01.776Z,27.10
2022-08-02T16:10:06.772Z,27.20
2022-08-02T16:11:11.920Z,27.20
2022-08-02T16:12:15.815Z,27.10
2022-08-02T16:13:41.232Z,27.10
2022-08-02T16:14:56.662Z,27.00
2022-08-02T16:16:00.353Z,27.00
2022-08-02T16:17:03.657Z,27.00
2022-08-02T16:18:06.134Z,26.90
2022-08-02T16:19:47.400Z,26.90
2022-08-02T16:20:32.872Z,26.90
2022-08-02T16:21:35.431Z,26.90
2022-08-02T16:22:39.055Z,26.90
2022-08-02T16:24:01.206Z,26.80
2022-08-02T16:25:07.247Z,26.90
2022-08-02T16:26:13.573Z,26.90
2022-08-02T16:27:17.586Z,26.80
2022-08-02T16:28:22.809Z,26.80
2022-08-02T16:29:26.364Z,26.70
2022-08-02T16:30:29.118Z,26.60
2022-08-02T16:31:35.628Z,26.50
2022-08-02T16:32:41.302Z,26.50
2022-08-02T16:33:44.861Z,26.40
2022-08-02T16:35:07.853Z,26.30
2022-08-02T16:36:13.017Z,26.20
2022-08-02T16:37:16.422Z,26.10
2022-08-02T16:38:19.204Z,26.10
2022-08-02T16:39:22.888Z,26.10
2022-08-02T16:40:25.701Z,26.00
2022-08-02T16:41:45.480Z,26.00
2022-08-02T16:42:52.668Z,26.00
2022-08-02T16:43:55.128Z,25.90
2022-08-02T16:44:58.655Z,25.90
2022-08-02T16:46:01.212Z,25.80
2022-08-02T16:47:06.797Z,25.80
2022-08-02T16:48:10.311Z,25.70
2022-08-02T16:50:07.239Z,25.70
2022-08-02T16:50:37.772Z,25.70
2022-08-02T16:51:40.204Z,25.60
2022-08-02T16:52:43.681Z,25.70
2022-08-02T16:53:59.852Z,25.60
2022-08-02T16:55:07.197Z,25.60
2022-08-02T16:56:14.735Z,25.50
2022-08-02T16:57:17.441Z,25.50
2022-08-02T16:58:23.592Z,25.50
2022-08-02T16:59:26.290Z,25.50
2022-08-02T17:00:46.239Z,25.40
2022-08-02T17:02:02.900Z,25.40
2022-08-02T17:03:14.010Z,25.40
2022-08-02T17:04:18.067Z,25.50
2022-08-02T17:05:21.475Z,25.50
2022-08-02T17:06:26.311Z,25.50
2022-08-02T17:08:07.193Z,25.50
2022-08-02T17:08:55.454Z,25.50
2022-08-02T17:10:04.455Z,25.60
2022-08-02T17:11:10.050Z,25.60
2022-08-02T17:12:15.870Z,25.70
2022-08-02T17:13:19.778Z,25.70
2022-08-02T17:14:23.890Z,25.70
2022-08-02T17:16:08.654Z,25.70
2022-08-02T17:16:53.861Z,25.60
2022-08-02T17:18:01.236Z,25.60
2022-08-02T17:19:06.175Z,25.50
2022-08-02T17:20:10.428Z,25.50
2022-08-02T17:21:14.052Z,25.40
2022-08-02T17:22:21.846Z,25.30
2022-08-02T17:24:06.371Z,25.20
2022-08-02T17:24:51.412Z,25.30
2022-08-02T17:25:56.535Z,25.30
2022-08-02T17:26:59.476Z,25.30
2022-08-02T17:28:03.028Z,25.30
2022-08-02T17:29:14.414Z,25.30
2022-08-02T17:30:26.796Z,25.30
2022-08-02T17:31:43.069Z,25.40
2022-08-02T17:32:51.165Z,25.40
2022-08-02T17:33:59.006Z,25.40
2022-08-02T17:35:06.437Z,25.40
2022-08-02T17:36:13.446Z,25.40
2022-08-02T17:37:15.907Z,25.40
2022-08-02T17:38:26.168Z,25.40
2022-08-02T17:39:33.838Z,25.40
2022-08-02T17:40:40.321Z,25.30
2022-08-02T17:41:49.314Z,25.30
2022-08-02T17:42:53.886Z,25.30
2022-08-02T17:43:56.265Z,25.30
2022-08-02T17:45:16.572Z,25.30
2022-08-02T17:46:24.417Z,25.20
2022-08-02T17:47:30.843Z,25.20
2022-08-02T17:48:49.468Z,25.10
2022-08-02T17:49:54.559Z,25.10
2022-08-02T17:50:59.270Z,25.00
2022-08-02T17:52:15.356Z,24.90
2022-08-02T17:53:36.416Z,24.90
2022-08-02T17:54:39.038Z,24.80
2022-08-02T17:55:42.863Z,24.80
2022-08-02T17:56:46.151Z,24.70
2022-08-02T17:57:57.740Z,24.70
2022-08-02T17:59:20.235Z,24.70
2022-08-02T18:00:26.645Z,24.70
2022-08-02T18:01:29.209Z,24.70
2022-08-02T18:02:36.353Z,24.70
2022-08-02T18:03:39.005Z,24.70
2022-08-02T18:04:49.797Z,24.70
2022-08-02T18:07:25.046Z,24.80
2022-08-02T18:08:29.470Z,24.80
2022-08-02T18:09:32.981Z,24.80
2022-08-02T18:10:39.240Z,24.80
2022-08-02T18:11:52.132Z,24.70
2022-08-02T18:12:56.731Z,24.70
2022-08-02T18:14:01.602Z,24.60
2022-08-02T18:15:06.881Z,24.60
2022-08-02T18:16:21.228Z,24.60
2022-08-02T18:17:26.357Z,24.60
2022-08-02T18:18:31.707Z,24.60
2022-08-02T18:19:42.536Z,24.60
2022-08-02T18:20:56.461Z,24.60
2022-08-02T18:22:00.643Z,24.50
2022-08-02T18:23:10.942Z,24.50
2022-08-02T18:24:19.210Z,24.40
2022-08-02T18:25:37.880Z,24.40
2022-08-02T18:26:51.581Z,24.40
2022-08-02T18:27:53.958Z,24.40
2022-08-02T18:28:58.983Z,24.40
2022-08-02T18:30:04.361Z,24.40
2022-08-02T18:31:22.681Z,24.40
2022-08-02T18:33:55.208Z,24.40
2022-08-02T18:33:59.447Z,24.40
2022-08-02T18:35:07.798Z,24.40
2022-08-02T18:36:24.843Z,24.30
2022-08-02T18:37:28.989Z,24.30
2022-08-02T18:38:50.783Z,24.30
2022-08-02T18:39:54.174Z,24.30
2022-08-02T18:41:00.871Z,24.30
2022-08-02T18:42:07.444Z,24.20
2022-08-02T18:43:14.306Z,24.20
2022-08-02T18:44:18.790Z,24.20
2022-08-02T18:45:21.389Z,24.10
2022-08-02T18:46:30.080Z,24.10
2022-08-02T18:47:32.887Z,24.10
2022-08-02T18:48:37.010Z,24.10
2022-08-02T18:49:46.061Z,24.10
2022-08-02T18:50:51.991Z,24.10
2022-08-02T18:51:56.541Z,24.00
2022-08-02T18:52:59.879Z,24.00
2022-08-02T18:54:05.799Z,24.00
2022-08-02T18:55:17.529Z,24.10
2022-08-02T18:56:39.118Z,24.10
2022-08-02T18:58:16.865Z,24.00
2022-08-02T18:59:05.859Z,24.00
2022-08-02T19:00:13.383Z,24.00
2022-08-02T19:01:31.413Z,24.00
2022-08-02T19:02:41.360Z,24.00
2022-08-02T19:03:52.944Z,24.00
2022-08-02T19:04:56.636Z,24.00
2022-08-02T19:05:59.553Z,24.00
2022-08-02T19:07:07.480Z,24.00
2022-08-02T19:08:13.466Z,24.00
2022-08-02T19:09:18.711Z,24.00
2022-08-02T19:10:21.341Z,24.00
2022-08-02T19:11:26.636Z,24.00
2022-08-02T19:12:39.601Z,23.90
2022-08-02T19:13:44.976Z,23.90
2022-08-02T19:14:48.381Z,23.90
2022-08-02T19:15:51.000Z,23.90
2022-08-02T19:16:54.360Z,23.90
2022-08-02T19:17:58.082Z,23.90
2022-08-02T19:19:04.932Z,24.00
2022-08-02T19:20:08.379Z,24.00
2022-08-02T19:21:15.626Z,24.00
2022-08-02T19:22:20.660Z,24.00
2022-08-02T19:23:24.026Z,23.90
2022-08-02T19:24:27.762Z,23.90
2022-08-02T19:25:35.486Z,23.90
2022-08-02T19:26:41.962Z,23.90
2022-08-02T19:27:47.317Z,23.90
2022-08-02T19:28:53.642Z,23.90
2022-08-02T19:29:56.955Z,23.90
2022-08-02T19:31:00.743Z,23.90
2022-08-02T19:32:03.307Z,23.90
2022-08-02T19:33:10.902Z,23.90
2022-08-02T19:34:31.662Z,23.90
2022-08-02T19:35:35.184Z,23.80
2022-08-02T19:36:58.562Z,23.80
2022-08-02T19:38:10.434Z,23.80
2022-08-02T19:39:19.374Z,23.80
2022-08-02T19:40:27.730Z,23.80
2022-08-02T19:41:43.638Z,23.70
2022-08-02T19:44:22.906Z,23.80
2022-08-02T19:44:27.559Z,23.80
2022-08-02T19:45:48.903Z,23.70
2022-08-02T19:46:59.256Z,23.60
2022-08-02T19:48:14.881Z,23.60
2022-08-02T19:49:39.747Z,23.60
2022-08-02T19:50:49.251Z,23.50
2022-08-02T19:51:55.755Z,23.50
2022-08-02T19:52:59.234Z,23.40
2022-08-02T19:54:02.603Z,23.50
2022-08-02T19:55:59.701Z,23.50
2022-08-02T19:56:34.334Z,23.50
2022-08-02T19:57:42.057Z,23.50
2022-08-02T19:58:45.607Z,23.50
2022-08-02T19:59:51.454Z,23.50
2022-08-02T20:00:54.483Z,23.50
2022-08-02T20:01:57.903Z,23.50
2022-08-02T20:03:02.333Z,23.50
2022-08-02T20:04:06.203Z,23.50
2022-08-02T20:05:16.417Z,23.50
2022-08-02T20:06:29.364Z,23.50
2022-08-02T20:07:54.987Z,23.60
2022-08-02T20:09:01.728Z,23.60
2022-08-02T20:10:05.986Z,23.60
2022-08-02T20:11:14.953Z,23.60
2022-08-02T20:12:20.678Z,23.60
2022-08-02T20:13:27.270Z,23.60
2022-08-02T20:14:37.767Z,23.60
2022-08-02T20:15:56.007Z,23.60
2022-08-02T20:17:04.887Z,23.60
2022-08-02T20:18:11.571Z,23.60
2022-08-02T20:19:14.023Z,23.60
2022-08-02T20:20:23.568Z,23.60
2022-08-02T20:21:36.397Z,23.60
2022-08-02T20:22:54.655Z,23.60
2022-08-02T20:23:58.614Z,23.60
2022-08-02T20:25:07.731Z,23.60
2022-08-02T20:26:10.505Z,23.60
2022-08-02T20:27:17.022Z,23.60
2022-08-02T20:28:28.577Z,23.60
2022-08-02T20:29:42.942Z,23.50
2022-08-02T20:30:50.257Z,23.50
2022-08-02T20:31:52.619Z,23.50
2022-08-02T20:33:21.311Z,23.50
2022-08-02T20:34:26.243Z,23.40
2022-08-02T20:35:29.777Z,23.40
2022-08-02T20:36:32.228Z,23.40
2022-08-02T20:38:00.765Z,23.30
2022-08-02T20:38:59.030Z,23.30
2022-08-02T20:40:01.481Z,23.20
2022-08-02T20:41:04.811Z,23.20
2022-08-02T20:42:23.817Z,23.20
2022-08-02T20:43:31.198Z,23.20
2022-08-02T20:44:36.025Z,23.10
2022-08-02T20:45:39.520Z,23.10
2022-08-02T20:46:44.221Z,23.10
2022-08-02T20:47:52.437Z,23.10
2022-08-02T20:49:03.645Z,23.10
2022-08-02T20:50:31.522Z,23.00
2022-08-02T20:51:35.548Z,23.00
2022-08-02T20:52:37.965Z,23.00
2022-08-02T20:53:54.734Z,22.90
2022-08-02T20:54:57.664Z,23.00
2022-08-02T20:56:01.037Z,22.90
2022-08-02T20:57:05.756Z,22.90
2022-08-02T20:58:14.478Z,22.90
2022-08-02T20:59:21.132Z,22.90
2022-08-02T21:00:27.035Z,22.90
2022-08-02T21:01:36.818Z,22.90
2022-08-02T21:02:39.582Z,22.90
2022-08-02T21:03:42.932Z,22.90
2022-08-02T21:04:45.362Z,22.90
2022-08-02T21:05:54.850Z,22.80
2022-08-02T21:06:59.113Z,22.90
2022-08-02T21:08:04.884Z,22.90
2022-08-02T21:09:08.560Z,22.90
2022-08-02T21:10:11.025Z,22.90
2022-08-02T21:11:17.242Z,22.80
2022-08-02T21:12:19.845Z,22.80
2022-08-02T21:13:33.101Z,22.80
2022-08-02T21:14:37.092Z,22.80
2022-08-02T21:15:41.466Z,22.80
2022-08-02T21:16:44.698Z,22.80
2022-08-02T21:17:58.387Z,22.80
2022-08-02T21:19:09.528Z,22.80
2022-08-02T21:20:17.327Z,22.80
2022-08-02T21:21:30.961Z,22.80
2022-08-02T21:22:36.119Z,22.70
2022-08-02T21:23:48.479Z,22.70
2022-08-02T21:24:57.002Z,22.70
2022-08-02T21:26:00.376Z,22.60
2022-08-02T21:27:02.737Z,22.60
2022-08-02T21:28:06.598Z,22.60
2022-08-02T21:29:09.161Z,22.60
2022-08-02T21:30:18.097Z,22.60
2022-08-02T21:31:20.440Z,22.60
2022-08-02T21:32:25.027Z,22.60
2022-08-02T21:33:27.544Z,22.50
2022-08-02T21:34:51.046Z,22.50
2022-08-02T21:35:56.231Z,22.40
2022-08-02T21:36:58.600Z,22.40
2022-08-02T21:38:02.013Z,22.40
2022-08-02T21:39:08.776Z,22.40
2022-08-02T21:40:14.277Z,22.30
2022-08-02T21:41:17.250Z,22.30
2022-08-02T21:42:23.621Z,22.30
2022-08-02T21:43:35.174Z,22.30
2022-08-02T21:44:42.049Z,22.40
2022-08-02T21:45:55.503Z,22.40
2022-08-02T21:46:59.813Z,22.40
2022-08-02T21:48:02.813Z,22.40
2022-08-02T21:49:06.189Z,22.40
2022-08-02T21:50:16.133Z,22.40
2022-08-02T21:51:18.979Z,22.40
2022-08-02T21:52:25.942Z,22.40
2022-08-02T21:53:42.578Z,22.40
2022-08-02T21:54:45.802Z,22.40
2022-08-02T21:56:00.725Z,22.40
2022-08-02T21:57:05.223Z,22.40
2022-08-02T21:58:08.589Z,22.40
2022-08-02T21:59:15.603Z,22.40
2022-08-02T22:00:28.573Z,22.40
2022-08-02T22:01:32.940Z,22.40
2022-08-02T22:02:36.309Z,22.50
2022-08-02T22:03:38.733Z,22.50
2022-08-02T22:04:58.508Z,22.50
2022-08-02T22:06:01.001Z,22.50
2022-08-02T22:07:04.550Z,22.50
2022-08-02T22:08:07.988Z,22.50
2022-08-02T22:09:17.596Z,22.50
2022-08-02T22:10:21.723Z,22.50
2022-08-02T22:11:24.368Z,22.50
2022-08-02T22:12:29.327Z,22.50
2022-08-02T22:13:38.902Z,22.50
2022-08-02T22:14:55.079Z,22.50
2022-08-02T22:15:58.683Z,22.50
2022-08-02T22:17:08.513Z,22.50
2022-08-02T22:18:14.394Z,22.50
2022-08-02T22:19:16.944Z,22.50
2022-08-02T22:20:21.370Z,22.40
2022-08-02T22:21:27.696Z,22.40
2022-08-02T22:22:48.213Z,22.40
2022-08-02T22:23:52.663Z,22.40
2022-08-02T22:24:56.781Z,22.30
2022-08-02T22:25:59.582Z,22.40
2022-08-02T22:27:02.917Z,22.40
2022-08-02T22:28:35.508Z,22.40
2022-08-02T22:29:31.418Z,22.40
2022-08-02T22:30:34.013Z,22.30
2022-08-02T22:31:40.902Z,22.40
2022-08-02T22:33:15.347Z,22.40
2022-08-02T22:34:36.993Z,22.30
2022-08-02T22:35:41.342Z,22.30
2022-08-02T22:36:44.853Z,22.40
2022-08-02T22:38:17.506Z,22.30
2022-08-02T22:39:18.807Z,22.30
2022-08-02T22:40:22.214Z,22.30
2022-08-02T22:42:06.405Z,22.30
2022-08-02T22:42:51.123Z,22.30
2022-08-02T22:43:53.456Z,22.30
2022-08-02T22:44:58.909Z,22.30
2022-08-02T22:46:02.648Z,22.20
2022-08-02T22:47:14.467Z,22.30
2022-08-02T22:48:19.266Z,22.30
2022-08-02T22:49:37.682Z,22.30
2022-08-02T22:50:46.302Z,22.30
2022-08-02T22:51:49.721Z,22.30
2022-08-02T22:52:52.432Z,22.30
2022-08-02T22:53:57.455Z,22.30
2022-08-02T22:55:00.721Z,22.30
2022-08-02T22:56:05.792Z,22.30
2022-08-02T22:57:11.249Z,22.20
2022-08-02T22:58:14.195Z,22.20
2022-08-02T22:58:43.168Z,24.80
2022-08-02T22:59:36.533Z,22.20
2022-08-02T23:00:42.119Z,22.20
2022-08-02T23:01:45.558Z,22.10
2022-08-02T23:02:48.332Z,22.10
2022-08-02T23:03:53.141Z,22.10
2022-08-02T23:04:55.515Z,22.10
2022-08-02T23:05:58.856Z,22.00
2022-08-02T23:07:01.247Z,22.00
2022-08-02T23:08:04.856Z,22.00
2022-08-02T23:09:08.156Z,22.00
2022-08-02T23:10:10.562Z,22.00
2022-08-02T23:11:14.245Z,22.00
2022-08-02T23:12:19.379Z,22.00
2022-08-02T23:13:27.980Z,21.90
2022-08-02T23:14:31.893Z,21.90
2022-08-02T23:15:54.428Z,21.90
2022-08-02T23:17:15.458Z,21.90
2022-08-02T23:18:36.528Z,21.80
2022-08-02T23:19:53.344Z,21.70
2022-08-02T23:20:56.815Z,21.70
2022-08-02T23:22:03.366Z,21.70
2022-08-02T23:23:11.890Z,21.70
2022-08-02T23:24:15.500Z,21.60
2022-08-02T23:25:18.941Z,21.60
2022-08-02T23:26:22.389Z,21.60
2022-08-02T23:27:25.071Z,21.60
2022-08-02T23:28:28.505Z,21.60
2022-08-02T23:29:30.950Z,21.60
2022-08-02T23:30:34.395Z,21.60
2022-08-02T23:31:38.277Z,21.60
2022-08-02T23:32:41.761Z,21.60
2022-08-02T23:33:58.543Z,21.60
2022-08-02T23:35:16.676Z,21.60
2022-08-02T23:36:19.886Z,21.50
2022-08-02T23:37:23.608Z,21.50
2022-08-02T23:38:25.968Z,21.50
2022-08-02T23:39:29.473Z,21.50
2022-08-02T23:40:40.069Z,21.50
2022-08-02T23:41:44.186Z,21.50
2022-08-02T23:42:46.577Z,21.50
2022-08-02T23:44:11.146Z,21.50
2022-08-02T23:45:13.492Z,21.50
2022-08-02T23:46:15.932Z,21.50
2022-08-02T23:47:19.644Z,21.50
2022-08-02T23:48:22.113Z,21.50
2022-08-02T23:49:26.029Z,21.40
2022-08-02T23:50:30.928Z,21.50
2022-08-02T23:51:34.645Z,21.50
2022-08-02T23:52:37.186Z,21.50
2022-08-02T23:53:42.815Z,21.50
2022-08-02T23:54:47.530Z,21.50
2022-08-02T23:55:51.555Z,21.50
2022-08-02T23:56:54.181Z,21.40
2022-08-02T23:57:57.995Z,21.40
2022-08-02T23:59:01.235Z,21.40
